Pagrindinis puslapis
METAR-TAF:

METAR-TAF

Oro uostai :

Jinotega, Nikaragva

platuma: 13-05N, ilguma: 085-59W, Aukštis: 985 m

Dabartinis oras

Ataskaita buvo paskelbta 35 minutes, ne 19:00 UTC
Vėjas 4 kt iš Šiaurės/Šiaurės Rytų
Temperatūra 24°C
Drėgmė 69%
Slėgis 1013 hPa
Matomumas 10 km arba daugiau
Su prošvaistėmis ne aukštis 1000 ft

METAR: MNJG 221900Z 03004KT 9999 BKN010 24/18 Q1013

Laikas: 13:35 (19:35 UTC)


TAF: trūkstamas

Orai ataskaitas ir orų prognozės (METAR, TAF).

turimą stotys yra geltonos ir raudonos taškus žemėlapyje.

Perkelti pele per norėdami pamatyti stoties vardą.

Tada spustelėkite, norėdami matyti oro stebėjimo ir prognozės.

Norėdami pakeisti žemėlapį: spustelėkite ant žalios mygtukų su juodo kryžiaus žemyn,; žalią mygtuką su brūkšneliu, jei norite nutolinti; arba žalių rodyklių gretimoms žemėlapius.


METAR-TAF: